الصفحة الرئيسية
METAR-TAF:

METAR-TAF

مطار :

فو كوك, فيتنام

دائرة عرض: 10-10-18N, خط طول: 103-59-28E, ارتفاع: 11 متر

مراقبة الطقس الحالي

تاريخ ووقت الإصدار 34 دقيقة قبل الساعة 08:30UTC
ريح 3 عقدةمن اتجاهات متغيرة
درجة الحرارة 29°درجة مئوية
الرطوبة 66%
ضغط 1008 hPa
الرؤية 10 كم أو أكثر
غيوم متفرقة على ارتفاع 1500 قدم

METAR: VVPQ 260830Z VRB03KT 9999 SCT015 29/22 Q1008 NOSIG

زمن: 16:04 (09:04 UTC)

توقعات

تاريخ ووقت الإصدار 4ساعات و 4 دقيقة قبل الساعة 05:00UTC
التوقعات صالحة من26 الساعة 06 UTC إلى 27 الساعة 06 UTC
ريح 3 عقدةمن اتجاهات متغيرة
الرؤية 10 كم أو أكثر
غيوم متفرقة على ارتفاع 1700 قدم
غيوم متفرقة على ارتفاع 4000 قدم
أصبح
من 27 الساعة 02 UTC إلى 27 الساعة 03 UTC
ريح 10 عقدة من الشرق

TAF: VVPQ 260500Z 2606/2706 VRB03KT 9999 SCT017 SCT040 BECMG 2702/2703 10010KT

أرصاد الطقس والتوقعات من أكثر من 4000 مطار (تقارير الطقس للمطار METAR والتنبؤ بالطقس بالمطارTAF).

المحطات المتاحة هي النقط الصفراء والحمراء على الخريطة.

حرك المؤشر فوق النقطة لمعرفة اسم المحطة.

ثم انقر لمعرفة أرصاد وتوقعات الطقس.

لتغيير الخارطة: اضغط على الأزرار الخضراء مع رمز الصليب الأسود للتكبير. على الزر الأخضر مع شرطة للتصغير، أو على الأسهم الخضراء للخرائط المجاورة.


METAR-TAF: